Time;durP1;ratioP1;P1;durP2;ratioP2;P2;SDS_P1;SDS_P2;PMS_P1;PMS_P2;Temp;Humidity;BMP_temperature;BMP_pressure;BME280_temperature;BME280_humidity;BME280_pressure;Samples;Min_cycle;Max_cycle;Signal;HPM_P1;HPM_P2
2022/09/13 00:01:19;;;;;;;0.57;0.57;;;;;;;11.60;78.17;99546.59;4994132;28;20042;-65
2022/09/13 00:03:49;;;;;;;1.63;1.52;;;;;;;11.65;78.13;99533.78;4993755;28;20109;-66
2022/09/13 00:06:20;;;;;;;0.60;0.60;;;;;;;11.57;77.94;99531.28;4994439;28;20042;-66
2022/09/13 00:08:49;;;;;;;0.38;0.38;;;;;;;11.50;78.05;99527.06;4993799;28;20051;-66
2022/09/13 00:11:21;;;;;;;0.60;0.60;;;;;;;11.53;78.28;99534.72;4993693;28;20093;-66
2022/09/13 00:13:50;;;;;;;2.08;0.60;;;;;;;11.57;78.04;99533.81;4993689;28;20058;-66
2022/09/13 00:16:22;;;;;;;0.47;0.47;;;;;;;11.63;78.51;99532.94;4993893;28;20401;-66
2022/09/13 00:18:53;;;;;;;0.77;0.77;;;;;;;11.73;78.00;99524.38;4993768;28;20050;-67
2022/09/13 00:21:23;;;;;;;1.00;0.95;;;;;;;11.65;77.65;99526.97;4994023;28;20055;-69
2022/09/13 00:23:54;;;;;;;0.95;0.77;;;;;;;11.63;77.38;99523.56;4993499;28;20051;-66
2022/09/13 00:26:26;;;;;;;0.77;0.77;;;;;;;11.47;77.60;99526.25;4993678;28;20050;-65
2022/09/13 00:28:56;;;;;;;0.28;0.28;;;;;;;11.34;77.37;99525.47;4993597;28;20061;-65
2022/09/13 00:31:27;;;;;;;2.03;1.00;;;;;;;11.28;77.61;99531.47;4979525;28;20444;-66
2022/09/13 00:33:59;;;;;;;0.65;0.60;;;;;;;11.19;77.40;99525.56;4979686;28;20053;-66
2022/09/13 00:36:28;;;;;;;0.90;0.70;;;;;;;11.15;78.12;99526.44;4997224;28;20448;-66
2022/09/13 00:38:58;;;;;;;0.82;0.82;;;;;;;11.17;78.34;99529.84;4996915;28;20052;-65
2022/09/13 00:41:27;;;;;;;1.05;0.95;;;;;;;11.12;78.00;99529.00;4997233;28;20110;-65
2022/09/13 00:43:58;;;;;;;0.67;0.67;;;;;;;11.07;78.05;99516.25;4996587;28;20050;-65
2022/09/13 00:46:34;;;;;;;0.50;0.50;;;;;;;11.06;77.68;99518.84;4997236;28;20046;-65
2022/09/13 00:49:14;;;;;;;0.88;0.70;;;;;;;10.98;78.10;99528.22;4996788;28;20054;-66
2022/09/13 00:51:51;;;;;;;0.55;0.55;;;;;;;11.01;78.11;99530.78;4997061;28;20050;-65
2022/09/13 00:54:24;;;;;;;1.30;0.93;;;;;;;10.98;78.39;99528.22;4996657;28;20113;-65
2022/09/13 00:56:56;;;;;;;1.15;1.10;;;;;;;11.06;78.58;99518.84;4996556;28;20054;-65
2022/09/13 00:59:29;;;;;;;0.35;0.35;;;;;;;11.13;78.37;99520.50;4996891;28;20473;-65
2022/09/13 01:01:58;;;;;;;0.77;0.77;;;;;;;11.08;77.87;99519.66;4996550;28;20050;-66
2022/09/13 01:04:32;;;;;;;1.30;1.20;;;;;;;11.07;78.40;99521.38;4996707;28;20050;-66
2022/09/13 01:07:04;;;;;;;0.70;0.70;;;;;;;11.16;78.34;99520.47;4996730;28;20133;-65
2022/09/13 01:09:37;;;;;;;0.43;0.43;;;;;;;11.23;77.64;99519.56;4996695;28;20047;-66
2022/09/13 01:12:20;;;;;;;0.57;0.55;;;;;;;11.25;77.96;99516.13;4996416;28;20062;-66
2022/09/13 01:14:49;;;;;;;0.55;0.55;;;;;;;11.32;77.79;99514.41;4996316;28;20050;-65
2022/09/13 01:17:18;;;;;;;0.52;0.52;;;;;;;11.40;77.56;99518.59;4996188;28;20044;-64
2022/09/13 01:19:48;;;;;;;0.70;0.70;;;;;;;11.49;77.09;99515.16;4996232;28;20035;-66
2022/09/13 01:22:45;;;;;;;0.47;0.47;;;;;;;11.48;76.73;99513.44;4996536;28;20385;-65
2022/09/13 01:25:42;;;;;;;0.70;0.70;;;;;;;11.49;76.76;99511.75;4996007;28;20039;-65
2022/09/13 01:28:36;;;;;;;0.45;0.45;;;;;;;11.48;76.39;99512.59;4964004;28;20054;-65
2022/09/13 01:31:12;;;;;;;0.40;0.40;;;;;;;11.48;76.43;99518.56;4996926;28;20042;-65
2022/09/13 01:33:55;;;;;;;0.75;0.75;;;;;;;11.49;76.09;99520.28;4996262;28;20407;-66
2022/09/13 01:36:43;;;;;;;0.50;0.50;;;;;;;11.51;76.21;99510.03;4995850;28;20480;-65
2022/09/13 01:39:17;;;;;;;0.50;0.50;;;;;;;11.55;75.82;99514.25;4996188;28;20066;-66
2022/09/13 01:42:05;;;;;;;0.25;0.25;;;;;;;11.59;75.91;99511.66;4995096;28;20049;-66
2022/09/13 01:44:51;;;;;;;0.50;0.50;;;;;;;11.57;75.58;99518.50;4995733;28;20049;-66
2022/09/13 01:47:27;;;;;;;0.80;0.80;;;;;;;11.48;75.64;99505.78;4995784;28;20105;-66
2022/09/13 01:50:10;;;;;;;0.40;0.40;;;;;;;11.42;75.79;99509.22;4995995;28;20050;-66
2022/09/13 01:52:46;;;;;;;0.63;0.55;;;;;;;11.41;75.55;99509.25;4995700;28;20069;-65
2022/09/13 01:55:23;;;;;;;0.40;0.40;;;;;;;11.45;75.64;99508.34;4995559;28;20054;-66
2022/09/13 01:57:57;;;;;;;0.70;0.70;;;;;;;11.48;75.41;99503.22;4995732;28;20046;-66
2022/09/13 02:00:30;;;;;;;0.85;0.85;;;;;;;11.47;75.51;99495.59;4995472;28;20050;-65
2022/09/13 02:03:06;;;;;;;0.40;0.40;;;;;;;11.46;75.28;99492.19;4995790;28;20046;-66
2022/09/13 02:05:40;;;;;;;2.92;1.15;;;;;;;11.42;75.51;99493.06;4995712;28;20073;-66
2022/09/13 02:08:14;;;;;;;0.38;0.38;;;;;;;11.37;75.77;99494.81;4995394;28;20493;-66
2022/09/13 02:10:48;;;;;;;0.57;0.57;;;;;;;11.37;76.03;99492.25;4995343;28;20054;-66
2022/09/13 02:13:22;;;;;;;1.35;1.25;;;;;;;11.29;76.01;99491.44;4978203;28;20104;-65
2022/09/13 02:15:57;;;;;;;0.73;0.73;;;;;;;11.25;76.04;99485.50;4995185;28;20062;-66
2022/09/13 02:18:32;;;;;;;0.32;0.32;;;;;;;11.30;76.26;99483.75;4995400;28;20046;-66
2022/09/13 02:21:07;;;;;;;0.43;0.43;;;;;;;11.23;76.52;99486.34;4995219;28;20057;-65
2022/09/13 02:23:41;;;;;;;0.52;0.52;;;;;;;11.23;76.60;99488.91;4995307;28;20061;-66
2022/09/13 02:26:14;;;;;;;0.88;0.85;;;;;;;11.29;76.65;99486.31;4995602;28;20058;-67
2022/09/13 02:28:48;;;;;;;0.85;0.68;;;;;;;11.34;76.49;99482.91;4995299;28;20050;-67
2022/09/13 02:31:25;;;;;;;0.50;0.50;;;;;;;11.35;76.50;99481.16;4977566;28;20058;-65
2022/09/13 02:33:59;;;;;;;0.77;0.77;;;;;;;11.37;76.81;99474.34;4995106;28;20488;-65
2022/09/13 02:36:31;;;;;;;0.80;0.80;;;;;;;11.39;76.66;99472.63;4995014;28;20047;-66
2022/09/13 02:39:04;;;;;;;0.50;0.50;;;;;;;11.38;76.78;99465.81;4995286;28;20477;-66
2022/09/13 02:41:39;;;;;;;0.38;0.38;;;;;;;11.42;76.64;99467.50;4994750;28;20046;-65
2022/09/13 02:44:15;;;;;;;0.63;0.63;;;;;;;11.40;76.28;99459.84;4994479;28;20058;-66
2022/09/13 02:47:03;;;;;;;0.65;0.65;;;;;;;11.30;76.37;99465.03;4994885;28;20068;-66
2022/09/13 02:49:49;;;;;;;0.52;0.52;;;;;;;11.30;76.62;99460.75;4995440;28;20043;-66
2022/09/13 02:52:28;;;;;;;0.32;0.32;;;;;;;11.31;76.23;99464.16;4994904;28;20420;-65
2022/09/13 02:55:03;;;;;;;0.82;0.82;;;;;;;11.25;76.50;99465.06;4994535;28;20504;-66
2022/09/13 02:57:38;;;;;;;1.27;0.93;;;;;;;11.26;76.58;99456.53;4994306;28;20054;-66
2022/09/13 03:00:08;;;;;;;0.70;0.70;;;;;;;11.28;76.65;99467.59;4994491;28;20055;-66
2022/09/13 03:02:39;;;;;;;1.02;0.98;;;;;;;11.30;76.82;99459.94;4994377;28;20548;-66
2022/09/13 03:05:10;;;;;;;0.75;0.60;;;;;;;11.26;76.79;99460.78;4994377;28;20054;-66
2022/09/13 03:07:38;;;;;;;0.30;0.30;;;;;;;11.26;76.33;99471.00;4977112;28;20133;-66
2022/09/13 03:10:11;;;;;;;1.33;1.15;;;;;;;11.24;76.71;99462.53;4994248;28;20042;-66
2022/09/13 03:12:57;;;;;;;2.42;0.73;;;;;;;11.24;76.71;99462.53;4994582;28;20500;-66
2022/09/13 03:15:39;;;;;;;1.25;1.15;;;;;;;11.24;76.86;99462.53;4994616;28;20047;-66
2022/09/13 03:18:21;;;;;;;1.23;1.13;;;;;;;11.25;76.82;99462.50;4994390;28;20056;-66
2022/09/13 03:21:01;;;;;;;0.40;0.40;;;;;;;11.23;76.50;99461.66;4994296;28;20050;-66
2022/09/13 03:23:46;;;;;;;0.80;0.80;;;;;;;11.24;76.35;99459.97;4994164;28;20488;-66
2022/09/13 03:26:26;;;;;;;1.92;1.60;;;;;;;11.25;76.42;99456.56;4994714;28;20046;-66
2022/09/13 03:29:10;;;;;;;1.17;1.08;;;;;;;11.24;76.10;99462.53;4994138;28;20053;-66
2022/09/13 03:31:47;;;;;;;1.20;1.05;;;;;;;11.25;76.24;99454.00;4994079;28;20061;-67
2022/09/13 03:34:29;;;;;;;0.52;0.52;;;;;;;11.25;76.45;99459.94;4994329;28;20054;-66
2022/09/13 03:37:09;;;;;;;2.60;2.17;;;;;;;11.23;76.43;99450.59;4994593;28;20049;-66
2022/09/13 03:39:43;;;;;;;2.17;1.10;;;;;;;11.19;76.20;99448.94;4994270;28;20439;-66
2022/09/13 03:42:18;;;;;;;0.43;0.43;;;;;;;11.17;76.26;99450.66;4994107;28;20126;-66
2022/09/13 03:44:50;;;;;;;1.80;1.15;;;;;;;11.15;75.82;99450.66;4993778;28;20054;-65
2022/09/13 03:47:21;;;;;;;6.22;1.40;;;;;;;11.15;75.81;99444.72;4994186;28;20428;-67
2022/09/13 03:49:52;;;;;;;0.50;0.50;;;;;;;11.14;76.33;99443.00;4994119;28;20054;-67
2022/09/13 03:52:22;;;;;;;0.55;0.55;;;;;;;11.09;75.83;99437.94;4993874;28;20550;-66
2022/09/13 03:54:52;;;;;;;0.82;0.77;;;;;;;11.11;76.01;99440.50;4993936;28;20054;-66
2022/09/13 03:57:22;;;;;;;0.77;0.77;;;;;;;11.06;76.06;99437.94;4993816;28;20052;-66
2022/09/13 03:59:53;;;;;;;1.13;0.85;;;;;;;11.06;76.05;99432.00;4993722;28;20045;-66
2022/09/13 04:02:24;;;;;;;0.80;0.70;;;;;;;11.07;76.02;99438.78;4994126;28;20076;-66
2022/09/13 04:04:53;;;;;;;0.68;0.68;;;;;;;11.05;76.08;99430.31;4994709;28;20051;-66
2022/09/13 04:07:25;;;;;;;0.60;0.60;;;;;;;11.10;76.40;99431.13;4998139;28;20038;-66
2022/09/13 04:09:53;;;;;;;0.50;0.50;;;;;;;11.09;76.08;99432.81;4997501;28;20054;-66
2022/09/13 04:12:22;;;;;;;0.40;0.40;;;;;;;11.10;76.16;99434.53;4997730;28;20045;-66
2022/09/13 04:14:51;;;;;;;0.97;0.97;;;;;;;11.06;76.40;99426.91;4997695;28;20395;-66
2022/09/13 04:17:20;;;;;;;0.65;0.65;;;;;;;11.04;76.28;99424.34;4997321;28;20299;-66
2022/09/13 04:19:48;;;;;;;0.52;0.52;;;;;;;11.04;76.98;99428.59;4997292;28;20039;-67
2022/09/13 04:22:17;;;;;;;0.82;0.82;;;;;;;11.04;76.54;99434.56;4997311;28;20051;-66
2022/09/13 04:24:47;;;;;;;0.80;0.80;;;;;;;11.04;76.54;99432.00;4997256;28;20034;-66
2022/09/13 04:27:16;;;;;;;0.60;0.57;;;;;;;11.06;76.79;99429.44;4997542;28;20133;-67
2022/09/13 04:29:44;;;;;;;1.20;0.95;;;;;;;11.06;76.93;99424.34;4997329;28;20034;-66
2022/09/13 04:32:13;;;;;;;0.77;0.70;;;;;;;11.10;77.01;99433.69;4997062;28;20053;-66
2022/09/13 04:34:41;;;;;;;29.00;1.67;;;;;;;11.10;76.93;99438.78;4997035;28;20055;-66
2022/09/13 04:37:10;;;;;;;0.55;0.43;;;;;;;11.12;77.06;99435.34;4997037;28;20042;-66
2022/09/13 04:39:39;;;;;;;0.93;0.80;;;;;;;11.12;76.67;99431.94;4996839;28;20436;-66
2022/09/13 04:42:10;;;;;;;0.57;0.57;;;;;;;11.12;76.90;99426.84;4996921;28;20043;-66
2022/09/13 04:44:39;;;;;;;0.95;0.95;;;;;;;11.12;76.48;99437.06;4996635;28;20101;-66
2022/09/13 04:47:08;;;;;;;1.08;0.95;;;;;;;11.08;76.29;99440.50;4996819;28;20048;-66
2022/09/13 04:49:37;;;;;;;;;;;;;;;11.06;76.77;99443.03;4997435;28;20488;-66
2022/09/13 04:52:05;;;;;;;0.47;0.47;;;;;;;11.11;76.59;99450.72;4997032;28;19926;-66
2022/09/13 04:54:34;;;;;;;1.00;0.80;;;;;;;11.11;77.02;99440.50;4996584;28;20046;-66
2022/09/13 04:57:03;;;;;;;0.50;0.50;;;;;;;11.15;76.77;99443.00;4996639;28;20129;-66
2022/09/13 04:59:33;;;;;;;0.70;0.70;;;;;;;11.18;76.55;99442.97;4997249;28;20074;-67
2022/09/13 05:02:01;;;;;;;1.83;1.35;;;;;;;11.28;77.06;99448.84;4997255;28;20038;-65
2022/09/13 05:04:30;;;;;;;0.50;0.50;;;;;;;11.30;76.69;99444.59;4996924;28;20070;-65
2022/09/13 05:06:59;;;;;;;0.68;0.68;;;;;;;11.32;76.51;99438.63;4996835;28;20038;-66
2022/09/13 05:09:27;;;;;;;1.02;0.98;;;;;;;11.34;76.68;99448.81;4997247;28;20082;-65
2022/09/13 05:11:56;;;;;;;0.60;0.60;;;;;;;11.30;76.27;99437.75;4996462;28;20096;-66
2022/09/13 05:14:25;;;;;;;0.40;0.40;;;;;;;11.38;76.51;99441.13;4996329;28;20042;-66
2022/09/13 05:16:55;;;;;;;0.70;0.70;;;;;;;11.47;76.74;99449.59;4996744;28;20133;-66
2022/09/13 05:19:23;;;;;;;0.77;0.70;;;;;;;11.54;76.51;99446.13;4996479;28;20141;-65
2022/09/13 05:21:52;;;;;;;0.40;0.40;;;;;;;11.63;76.74;99452.00;4996154;28;20077;-66
2022/09/13 05:24:21;;;;;;;0.38;0.38;;;;;;;11.68;76.57;99445.16;4996638;28;20485;-66
2022/09/13 05:26:50;;;;;;;0.50;0.50;;;;;;;11.73;76.40;99453.66;4996057;28;20046;-66
2022/09/13 05:29:18;;;;;;;0.70;0.70;;;;;;;11.77;76.63;99449.34;4996032;28;20050;-66
2022/09/13 05:31:47;;;;;;;0.50;0.50;;;;;;;11.77;76.70;99457.88;4996017;28;20035;-66
2022/09/13 05:34:18;;;;;;;0.98;0.98;;;;;;;11.76;76.62;99458.72;4996256;28;20388;-66
2022/09/13 05:36:49;;;;;;;0.73;0.55;;;;;;;11.79;76.72;99456.13;4996279;28;20175;-66
2022/09/13 05:39:21;;;;;;;1.02;0.80;;;;;;;11.81;76.93;99444.19;4978516;28;20464;-65
2022/09/13 05:42:10;;;;;;;0.38;0.38;;;;;;;11.93;76.76;99451.72;4978773;28;20057;-66
2022/09/13 05:44:39;;;;;;;0.85;0.68;;;;;;;12.02;76.67;99441.41;4995864;28;20051;-65
2022/09/13 05:47:08;;;;;;;0.77;0.65;;;;;;;12.19;76.57;99445.50;4996040;28;20043;-66
2022/09/13 05:49:38;;;;;;;0.95;0.93;;;;;;;12.28;76.42;99445.41;4995660;28;20049;-67
2022/09/13 05:52:27;;;;;;;0.50;0.50;;;;;;;12.31;76.16;99442.81;4995716;28;20492;-66
2022/09/13 05:54:55;;;;;;;0.50;0.50;;;;;;;12.38;76.09;99450.38;4996033;28;20077;-66
2022/09/13 05:57:24;;;;;;;0.70;0.70;;;;;;;12.50;75.78;99444.28;4995529;28;20078;-67
2022/09/13 05:59:53;;;;;;;1.20;1.10;;;;;;;12.64;75.75;99443.22;4995743;28;20046;-66
2022/09/13 06:02:23;;;;;;;0.77;0.75;;;;;;;12.74;75.26;99438.84;4997558;28;20046;-66
2022/09/13 06:04:53;;;;;;;3.85;0.65;;;;;;;12.85;75.43;99442.09;4995500;28;20057;-66
2022/09/13 06:07:21;;;;;;;0.40;0.40;;;;;;;12.96;74.81;99439.38;4995251;28;20477;-66
2022/09/13 06:09:50;;;;;;;1.83;1.33;;;;;;;12.99;74.67;99435.06;4995223;28;20054;-67
2022/09/13 06:12:19;;;;;;;0.43;0.43;;;;;;;13.09;74.46;99441.78;4995526;28;20050;-66
2022/09/13 06:14:47;;;;;;;0.68;0.60;;;;;;;13.24;74.47;99439.00;4995702;28;20404;-66
2022/09/13 06:17:16;;;;;;;0.63;0.63;;;;;;;13.41;74.31;99444.69;4995188;28;20045;-65
2022/09/13 06:19:45;;;;;;;1.40;1.30;;;;;;;13.58;73.88;99439.28;4995167;28;20049;-65
2022/09/13 06:22:15;;;;;;;1.05;0.98;;;;;;;13.75;73.83;99437.28;4994810;28;20043;-65
2022/09/13 06:24:44;;;;;;;3.25;1.02;;;;;;;13.84;73.35;99439.72;4995496;28;20045;-66
2022/09/13 06:27:12;;;;;;;0.65;0.65;;;;;;;13.89;73.34;99434.50;4994830;28;20042;-65
2022/09/13 06:29:41;;;;;;;1.77;0.80;;;;;;;13.98;72.71;99431.75;4994978;28;20129;-66
2022/09/13 06:32:09;;;;;;;0.98;0.88;;;;;;;14.03;72.50;99435.09;4995110;28;20048;-66
2022/09/13 06:34:38;;;;;;;0.88;0.80;;;;;;;14.12;72.28;99440.03;4995213;28;20119;-66
2022/09/13 06:37:06;;;;;;;0.50;0.50;;;;;;;14.23;72.30;99439.84;4997069;28;20579;-65
2022/09/13 06:39:36;;;;;;;0.65;0.65;;;;;;;14.26;72.03;99443.19;4995174;28;20049;-66
2022/09/13 06:42:05;;;;;;;0.63;0.60;;;;;;;14.32;71.77;99448.25;4994672;28;20140;-65
2022/09/13 06:44:41;;;;;;;0.50;0.50;;;;;;;14.41;71.53;99453.19;5001953;28;20049;-67
2022/09/13 06:47:10;;;;;;;4.28;1.38;;;;;;;14.49;71.47;99456.44;4996769;28;20502;-67
2022/09/13 06:49:39;;;;;;;0.80;0.80;;;;;;;14.57;70.80;99449.44;5014389;28;20046;-67
2022/09/13 06:52:08;;;;;;;1.33;1.25;;;;;;;14.55;71.05;99451.19;5014091;28;20496;-66
2022/09/13 06:54:38;;;;;;;0.53;0.53;;;;;;;14.62;70.90;99455.31;5014379;28;20128;-66
2022/09/13 06:57:07;;;;;;;0.63;0.63;;;;;;;14.75;70.67;99456.78;5014245;28;20329;-66
2022/09/13 06:59:35;;;;;;;0.60;0.60;;;;;;;14.88;70.34;99453.91;5014533;28;20075;-66
2022/09/13 07:02:04;;;;;;;0.80;0.70;;;;;;;15.03;70.78;99458.72;5014378;28;20046;-66
2022/09/13 07:04:33;;;;;;;0.47;0.47;;;;;;;15.22;70.11;99454.84;5014228;28;20050;-66
2022/09/13 07:07:01;;;;;;;0.73;0.70;;;;;;;15.31;69.25;99455.50;5013851;28;20045;-66
2022/09/13 07:09:30;;;;;;;2.13;1.13;;;;;;;15.44;69.23;99463.75;5013879;28;20042;-66
2022/09/13 07:12:00;;;;;;;1.50;1.40;;;;;;;15.58;68.98;99458.31;5013907;28;20053;-66
2022/09/13 07:14:29;;;;;;;0.98;0.90;;;;;;;15.66;68.29;99452.13;5013751;28;20049;-65
2022/09/13 07:16:59;;;;;;;0.93;0.87;;;;;;;15.79;67.79;99452.63;5014066;28;20412;-68
2022/09/13 07:19:28;;;;;;;0.80;0.70;;;;;;;15.86;67.12;99449.84;5013915;28;20097;-67
2022/09/13 07:21:57;;;;;;;1.48;1.33;;;;;;;15.96;67.34;99450.47;5013779;28;20520;-67
2022/09/13 07:24:26;;;;;;;0.75;0.75;;;;;;;16.08;67.30;99456.16;5013604;28;20057;-68
2022/09/13 07:26:54;;;;;;;2.47;0.70;;;;;;;16.20;66.90;99443.81;5013848;28;20133;-68
2022/09/13 07:29:24;;;;;;;0.70;0.70;;;;;;;16.23;66.38;99454.03;5014045;28;20044;-67
2022/09/13 07:31:55;;;;;;;0.70;0.70;;;;;;;16.27;66.40;99445.38;5014089;28;20053;-67
2022/09/13 07:34:26;;;;;;;0.90;0.90;;;;;;;16.35;66.88;99448.56;5014003;28;20054;-66
2022/09/13 07:36:54;;;;;;;1.85;1.40;;;;;;;16.43;66.15;99433.75;5013810;28;20077;-67
2022/09/13 07:39:23;;;;;;;0.82;0.82;;;;;;;16.50;66.28;99440.41;5013619;28;20562;-67
2022/09/13 07:41:52;;;;;;;1.45;1.17;;;;;;;16.54;65.40;99445.44;5017655;28;20492;-67
2022/09/13 07:44:21;;;;;;;;;;;;;;;16.60;64.79;99436.72;5018065;28;20457;-67
2022/09/13 07:46:51;;;;;;;0.68;0.68;;;;;;;16.71;64.86;99437.22;5017267;28;19928;-67
2022/09/13 07:49:20;;;;;;;1.20;0.93;;;;;;;16.89;64.32;99441.00;5018201;28;20042;-67
2022/09/13 07:51:51;;;;;;;0.63;0.63;;;;;;;17.04;64.33;99441.38;5017573;28;20038;-68
2022/09/13 07:54:20;;;;;;;0.98;0.95;;;;;;;17.12;63.68;99434.25;5018152;28;20041;-68
2022/09/13 07:56:50;;;;;;;0.70;0.70;;;;;;;17.16;62.91;99440.16;5017467;28;20046;-67
2022/09/13 07:59:19;;;;;;;1.85;1.35;;;;;;;17.20;63.06;99437.41;5017468;28;20484;-67
2022/09/13 08:01:49;;;;;;;2.70;1.43;;;;;;;17.34;63.22;99440.44;5017415;28;20533;-68
2022/09/13 08:04:21;;;;;;;0.50;0.50;;;;;;;17.46;62.64;99435.75;5017510;28;20533;-67
2022/09/13 08:06:49;;;;;;;0.75;0.75;;;;;;;17.52;62.20;99433.00;5017413;28;20050;-67
2022/09/13 08:09:19;;;;;;;1.08;0.98;;;;;;;17.64;61.69;99433.44;5017235;28;20046;-67
2022/09/13 08:11:51;;;;;;;0.57;0.57;;;;;;;17.76;60.85;99438.19;5017533;28;20073;-68
2022/09/13 08:14:23;;;;;;;0.95;0.73;;;;;;;17.84;60.43;99430.19;5017670;28;20058;-66
2022/09/13 08:16:55;;;;;;;0.70;0.70;;;;;;;17.96;60.70;99429.78;5016948;28;20056;-68
2022/09/13 08:19:25;;;;;;;0.98;0.90;;;;;;;18.15;61.02;99435.97;5017127;28;20046;-67
2022/09/13 08:21:54;;;;;;;3.42;1.08;;;;;;;18.19;60.31;99427.22;5016989;28;20049;-68
2022/09/13 08:24:23;;;;;;;1.52;1.02;;;;;;;18.27;60.09;99432.97;5017405;28;20045;-67
2022/09/13 08:26:55;;;;;;;0.70;0.70;;;;;;;18.40;59.71;99434.22;5017308;28;20427;-67
2022/09/13 08:29:24;;;;;;;1.08;0.98;;;;;;;18.56;59.68;99432.78;5016873;28;20049;-67
2022/09/13 08:31:52;;;;;;;1.13;0.90;;;;;;;18.75;60.07;99432.94;5017156;28;20476;-67
2022/09/13 08:34:21;;;;;;;0.70;0.70;;;;;;;18.69;59.04;99418.47;5016848;28;20041;-67
2022/09/13 08:36:51;;;;;;;0.93;0.85;;;;;;;18.82;58.14;99428.38;5017310;28;20046;-67
2022/09/13 08:39:20;;;;;;;1.17;1.08;;;;;;;18.91;57.64;99434.03;5017010;28;20155;-68
2022/09/13 08:42:13;;;;;;;0.98;0.88;;;;;;;18.92;57.04;99425.38;5017190;28;20551;-68
2022/09/13 08:44:46;;;;;;;0.70;0.70;;;;;;;18.97;57.33;99427.78;5016793;28;20385;-67
2022/09/13 08:47:38;;;;;;;0.88;0.85;;;;;;;19.09;58.01;99422.13;5017352;28;20430;-68
2022/09/13 08:50:18;;;;;;;2.08;1.02;;;;;;;19.26;58.04;99419.72;5017137;28;20054;-66
2022/09/13 08:53:09;;;;;;;0.90;0.70;;;;;;;19.34;58.22;99423.66;5017916;28;20065;-68
2022/09/13 08:55:49;;;;;;;1.20;1.10;;;;;;;19.27;57.25;99421.38;5019296;28;20387;-66
2022/09/13 08:58:45;;;;;;;0.50;0.50;;;;;;;19.10;57.03;99423.84;5023291;28;20488;-67
2022/09/13 09:01:32;;;;;;;1.85;1.02;;;;;;;19.03;57.04;99418.03;5016411;28;20038;-68
2022/09/13 09:04:12;;;;;;;0.55;0.55;;;;;;;19.16;57.35;99414.06;5016559;28;20072;-67
2022/09/13 09:06:42;;;;;;;0.70;0.70;;;;;;;19.28;57.47;99405.81;5016618;28;20045;-68
2022/09/13 09:09:16;;;;;;;0.40;0.40;;;;;;;19.46;57.00;99404.25;5016222;28;20129;-67
2022/09/13 09:11:50;;;;;;;0.30;0.30;;;;;;;19.58;56.14;99398.56;5016488;28;20046;-68
2022/09/13 09:14:27;;;;;;;0.38;0.38;;;;;;;19.71;55.54;99396.28;5016525;28;20042;-67
2022/09/13 09:17:01;;;;;;;0.85;0.73;;;;;;;19.70;54.89;99394.63;5016071;28;20053;-68
2022/09/13 09:19:35;;;;;;;0.77;0.77;;;;;;;19.68;54.63;99394.69;5016066;28;20057;-67
2022/09/13 09:22:11;;;;;;;2.22;1.90;;;;;;;19.84;55.17;99390.53;5015849;28;20496;-68
2022/09/13 09:24:47;;;;;;;1.38;0.95;;;;;;;19.92;55.62;99382.44;5016238;28;20042;-67
2022/09/13 09:27:18;;;;;;;2.72;1.83;;;;;;;20.01;55.87;99375.09;4998443;28;20056;-67
2022/09/13 09:29:49;;;;;;;0.47;0.47;;;;;;;20.10;56.32;99378.19;5015778;28;20061;-67
2022/09/13 09:32:40;;;;;;;0.63;0.63;;;;;;;20.23;56.26;99374.19;5015822;28;20058;-68
2022/09/13 09:35:17;;;;;;;1.80;1.08;;;;;;;20.31;55.56;99377.28;4997569;28;20508;-67
2022/09/13 09:38:00;;;;;;;0.70;0.60;;;;;;;20.48;54.33;99374.75;5016121;28;20053;-68
2022/09/13 09:40:34;;;;;;;0.90;0.85;;;;;;;20.61;53.67;99375.88;5015885;28;20542;-67
2022/09/13 09:43:13;;;;;;;1.13;1.02;;;;;;;20.52;52.26;99365.91;5015527;28;20129;-67
2022/09/13 09:45:46;;;;;;;0.40;0.40;;;;;;;20.58;52.47;99365.66;5015295;28;20057;-67
2022/09/13 09:48:20;;;;;;;1.48;1.17;;;;;;;20.86;52.46;99371.22;5015474;28;20104;-68
2022/09/13 09:50:53;;;;;;;1.95;1.17;;;;;;;20.85;51.97;99369.53;5015948;28;20416;-70
2022/09/13 09:53:27;;;;;;;0.50;0.50;;;;;;;20.97;51.08;99358.56;5015450;28;20488;-67
2022/09/13 09:56:06;;;;;;;0.50;0.50;;;;;;;21.18;50.93;99362.78;5015626;28;20112;-67
2022/09/13 09:58:38;;;;;;;3.70;1.77;;;;;;;21.35;50.36;99374.91;5015300;28;20069;-68
2022/09/13 10:01:17;;;;;;;0.77;0.77;;;;;;;21.32;50.17;99365.53;5014971;28;20049;-67
2022/09/13 10:03:52;;;;;;;0.50;0.50;;;;;;;21.40;49.62;99356.50;5014227;28;20046;-66
2022/09/13 10:06:26;;;;;;;0.50;0.50;;;;;;;21.51;49.38;99359.41;5014981;28;20124;-66
2022/09/13 10:09:00;;;;;;;0.65;0.65;;;;;;;21.65;49.75;99360.38;5015006;28;20042;-66
2022/09/13 10:11:45;;;;;;;0.70;0.70;;;;;;;21.72;49.67;99353.09;5014854;28;20495;-67
2022/09/13 10:14:36;;;;;;;0.40;0.40;;;;;;;21.81;49.49;99350.06;5015185;28;20073;-68
2022/09/13 10:17:17;;;;;;;0.95;0.63;;;;;;;22.02;49.54;99341.16;5015228;28;20123;-68
2022/09/13 10:19:56;;;;;;;0.77;0.70;;;;;;;21.88;48.96;99347.06;5015248;28;20374;-67
2022/09/13 10:22:25;;;;;;;0.50;0.50;;;;;;;21.80;48.82;99340.56;5014764;28;20046;-67
2022/09/13 10:24:54;;;;;;;0.60;0.60;;;;;;;21.79;48.64;99336.28;5015093;28;20432;-67
2022/09/13 10:27:32;;;;;;;0.68;0.68;;;;;;;21.86;48.43;99330.72;5015047;28;20042;-67
2022/09/13 10:30:03;;;;;;;0.57;0.57;;;;;;;22.01;48.58;99332.53;5014634;28;20132;-67
2022/09/13 10:32:33;;;;;;;0.82;0.70;;;;;;;22.15;48.17;99325.78;5014957;28;20038;-69
2022/09/13 10:35:07;;;;;;;;;;;;;;;22.16;47.04;99323.06;5015332;28;20050;-70
2022/09/13 10:37:37;;;;;;;2.42;1.13;;;;;;;22.11;45.99;99314.69;5015012;28;19922;-65
2022/09/13 10:40:13;;;;;;;1.05;0.95;;;;;;;22.24;45.69;99320.91;5015000;28;20046;-69
2022/09/13 10:42:53;;;;;;;0.68;0.68;;;;;;;22.41;46.27;99318.22;4997093;28;20483;-68
2022/09/13 10:45:25;;;;;;;0.40;0.40;;;;;;;22.45;46.13;99324.09;5014237;28;20096;-68
2022/09/13 10:47:56;;;;;;;0.73;0.73;;;;;;;22.70;46.96;99323.63;5014586;28;20058;-68
2022/09/13 10:50:27;;;;;;;0.80;0.55;;;;;;;22.89;46.36;99324.28;5014640;28;20058;-69
2022/09/13 10:52:58;;;;;;;4.93;0.68;;;;;;;23.13;46.21;99315.06;5014386;28;20041;-68
2022/09/13 10:55:35;;;;;;;1.05;0.80;;;;;;;23.16;45.55;99307.06;5014550;28;20511;-68
2022/09/13 10:58:19;;;;;;;0.43;0.43;;;;;;;23.22;45.84;99309.31;5014875;28;20049;-68
2022/09/13 11:01:16;;;;;;;0.47;0.47;;;;;;;23.28;45.60;99316.75;5015367;28;20060;-68
2022/09/13 11:04:05;;;;;;;0.85;0.77;;;;;;;23.25;45.25;99306.53;5014631;28;20049;-68
2022/09/13 11:06:42;;;;;;;0.50;0.50;;;;;;;23.23;45.34;99300.56;5014900;28;20443;-66
2022/09/13 11:09:16;;;;;;;0.50;0.50;;;;;;;23.38;44.95;99317.09;5014699;28;20046;-67
2022/09/13 11:11:55;;;;;;;0.40;0.40;;;;;;;23.34;44.75;99306.00;5015135;28;20404;-69
2022/09/13 11:14:42;;;;;;;0.75;0.75;;;;;;;23.08;44.28;99301.47;5015492;28;20041;-68
2022/09/13 11:17:25;;;;;;;0.50;0.50;;;;;;;23.09;44.37;99300.53;5015866;28;20050;-67
2022/09/13 11:20:21;;;;;;;0.68;0.57;;;;;;;23.18;43.58;99298.22;5021131;28;20136;-69
2022/09/13 11:23:19;;;;;;;0.47;0.47;;;;;;;23.31;43.50;99296.59;5016435;28;20432;-68
2022/09/13 11:26:05;;;;;;;0.63;0.63;;;;;;;23.27;43.75;99294.25;5013611;28;20069;-68
2022/09/13 11:28:47;;;;;;;0.50;0.50;;;;;;;23.32;44.36;99300.84;5013823;28;20054;-68
2022/09/13 11:31:38;;;;;;;0.40;0.40;;;;;;;23.43;44.40;99295.06;5014026;28;20511;-67
2022/09/13 11:34:28;;;;;;;0.50;0.50;;;;;;;23.58;44.75;99288.09;5014041;28;20050;-68
2022/09/13 11:37:15;;;;;;;0.50;0.50;;;;;;;23.78;44.42;99280.75;5013900;28;20484;-67
2022/09/13 11:39:57;;;;;;;0.40;0.40;;;;;;;23.95;43.64;99277.09;5014078;28;20057;-68
2022/09/13 11:42:41;;;;;;;0.40;0.40;;;;;;;23.93;43.14;99284.19;5013878;28;20057;-68
2022/09/13 11:45:24;;;;;;;0.43;0.43;;;;;;;23.94;42.68;99276.28;5013694;28;20144;-68
2022/09/13 11:48:18;;;;;;;0.60;0.60;;;;;;;23.99;42.12;99282.03;5013985;28;20458;-69
2022/09/13 11:50:57;;;;;;;0.50;0.50;;;;;;;23.87;41.35;99272.34;4996244;28;20050;-67
2022/09/13 11:53:49;;;;;;;0.52;0.52;;;;;;;23.88;41.64;99276.66;5013678;28;20050;-67
2022/09/13 11:56:25;;;;;;;1.00;0.68;;;;;;;23.99;41.99;99282.03;5013812;28;20049;-68
2022/09/13 11:58:57;;;;;;;0.68;0.68;;;;;;;24.25;42.25;99284.84;5013913;28;20053;-68
2022/09/13 12:01:32;;;;;;;0.40;0.40;;;;;;;24.37;41.93;99273.63;5013907;28;20500;-68
2022/09/13 12:04:06;;;;;;;0.57;0.57;;;;;;;24.28;41.19;99274.22;5013812;28;20115;-68
2022/09/13 12:06:39;;;;;;;0.85;0.80;;;;;;;24.22;40.81;99274.59;5013630;28;20054;-69